CheckWX is a tool to help pilots better visualize weather data.  It is not intended as a substitute for an official pre-flight weather briefing.

14:25:50 UTC

KPBX METAR
Pike County-Hatcher Field Airport
Pikeville, Kentucky, USA
Current

31 mins ago

KPBX 261355Z AUTO 25009KT 210V280 10SM BKN019 OVC027 14/12 A2962 RMK AO2 T01420118
Observed
Apr-26 @ 13:55 UTC
Wind
  • 250° at 9 KTS
Visibility
10 SM
Flight Rules
MVFR
Cloud Levels
  • Broken at 1,900' AGL
  • Overcast at 2,700' AGL
Temperature
14°C / 57°F
Dewpoint
12°C / 54°F
Humidity
88%
Altimeter
29.62" Hg
Pressure
1003.02 hPa
Previous

51 mins ago

KPBX 261335Z AUTO 24006G14KT 220V290 10SM BKN015 BKN022 OVC027 14/13 A2962 RMK AO2 T01380129
Observed
Apr-26 @ 13:35 UTC
Wind
  • 240° at 6 KTS
  • Gusting to 14 KTS
Visibility
10 SM
Flight Rules
MVFR
Cloud Levels
  • Broken at 1,500' AGL
  • Broken at 2,200' AGL
  • Overcast at 2,700' AGL
Temperature
14°C / 57°F
Dewpoint
13°C / 55°F
Humidity
94%
Altimeter
29.62" Hg
Pressure
1003.02 hPa
Previous

1 hour ago

KPBX 261315Z AUTO 26006KT 10SM BKN013 OVC025 14/14 A2962 RMK AO2 T01350135
Observed
Apr-26 @ 13:15 UTC
Wind
  • 260° at 6 KTS
Visibility
10 SM
Flight Rules
MVFR
Cloud Levels
  • Broken at 1,300' AGL
  • Overcast at 2,500' AGL
Temperature
14°C / 57°F
Dewpoint
14°C / 57°F
Humidity
100%
Altimeter
29.62" Hg
Pressure
1003.02 hPa